Time,TemperatureF,DewpointF,PressureIn,WindDirection,WindDirectionDegrees,WindSpeedMPH,WindSpeedGustMPH,Humidity,HourlyPrecipIn,Conditions,Clouds,dailyrainin,SoftwareType,DateUTC
2013-06-08 00:02:00,52.0,-1.4,29.71,SW,225,0.0,2.0,11,0.00,,,0.00,WUHU216HW,2013-06-08 06:02:00,
2013-06-08 00:07:00,51.8,1.4,29.70,SW,225,0.0,2.0,13,0.00,,,0.00,WUHU216HW,2013-06-08 06:07:00,
2013-06-08 00:12:00,51.8,-3.1,29.71,SSW,203,1.3,1.3,6,0.00,,,0.00,WUHU216HW,2013-06-08 06:12:00,
2013-06-08 00:17:00,51.7,-3.2,29.71,SW,225,0.4,1.3,5,0.00,,,0.00,WUHU216HW,2013-06-08 06:17:00,
2013-06-08 00:22:00,51.5,-3.3,29.71,SSW,203,0.0,1.3,5,0.00,,,0.00,WUHU216HW,2013-06-08 06:22:00,
2013-06-08 00:27:00,51.7,-3.2,29.71,SW,225,0.0,0.0,7,0.00,,,0.00,WUHU216HW,2013-06-08 06:27:00,
2013-06-08 00:32:00,51.7,-3.2,29.71,SW,225,0.0,0.0,5,0.00,,,0.00,WUHU216HW,2013-06-08 06:32:00,
2013-06-08 00:37:00,51.8,-3.1,29.71,SW,225,0.0,0.0,6,0.00,,,0.00,WUHU216HW,2013-06-08 06:37:00,
2013-06-08 00:42:00,51.7,-3.2,29.72,SW,225,0.0,0.0,5,0.00,,,0.00,WUHU216HW,2013-06-08 06:42:00,
2013-06-08 00:47:00,51.5,-3.3,29.72,SSW,203,0.0,1.1,6,0.00,,,0.00,WUHU216HW,2013-06-08 06:47:00,
2013-06-08 00:52:00,51.5,-3.3,29.72,SSW,203,0.0,1.1,6,0.00,,,0.00,WUHU216HW,2013-06-08 06:52:00,
2013-06-08 00:57:00,51.3,-3.5,29.72,SSW,203,0.0,0.0,5,0.00,,,0.00,WUHU216HW,2013-06-08 06:57:00,
2013-06-08 01:02:00,50.9,-3.8,29.72,SSW,203,0.0,0.0,10,0.00,,,0.00,WUHU216HW,2013-06-08 07:02:00,
2013-06-08 01:07:00,50.6,-2.5,29.72,SSW,203,0.0,0.0,11,0.00,,,0.00,WUHU216HW,2013-06-08 07:07:00,
2013-06-08 01:12:00,50.2,1.7,29.72,SSW,203,0.0,0.0,14,0.00,,,0.00,WUHU216HW,2013-06-08 07:12:00,
2013-06-08 01:17:00,50.0,1.5,29.72,SSW,203,0.0,0.9,14,0.00,,,0.00,WUHU216HW,2013-06-08 07:17:00,
2013-06-08 01:22:00,49.7,2.8,29.72,SW,225,0.0,0.9,15,0.00,,,0.00,WUHU216HW,2013-06-08 07:22:00,
2013-06-08 01:27:00,49.5,-1.9,29.72,SSW,203,0.0,0.9,12,0.00,,,0.00,WUHU216HW,2013-06-08 07:27:00,
2013-06-08 01:32:00,49.3,-5.0,29.72,SW,225,0.9,0.9,10,0.00,,,0.00,WUHU216HW,2013-06-08 07:32:00,
2013-06-08 01:37:00,49.0,-2.2,29.72,SW,225,0.0,0.9,12,0.00,,,0.00,WUHU216HW,2013-06-08 07:37:00,
2013-06-08 01:42:00,49.0,-2.2,29.72,SW,225,0.0,1.1,12,0.00,,,0.00,WUHU216HW,2013-06-08 07:42:00,
2013-06-08 01:47:00,48.6,-4.0,29.72,SSW,203,0.0,1.1,11,0.00,,,0.00,WUHU216HW,2013-06-08 07:47:00,
2013-06-08 01:52:00,48.6,-5.5,29.72,SSW,203,1.1,1.1,8,0.00,,,0.00,WUHU216HW,2013-06-08 07:52:00,
2013-06-08 01:57:00,48.4,-5.7,29.72,SW,225,0.0,1.1,10,0.00,,,0.00,WUHU216HW,2013-06-08 07:57:00,
2013-06-08 02:02:00,48.4,-5.7,29.73,SSW,203,0.9,0.9,7,0.00,,,0.00,WUHU216HW,2013-06-08 08:02:00,
2013-06-08 02:07:00,48.2,-5.8,29.73,SW,225,0.0,0.9,8,0.00,,,0.00,WUHU216HW,2013-06-08 08:07:00,
2013-06-08 02:12:00,48.2,-5.8,29.73,SSW,203,0.4,0.9,7,0.00,,,0.00,WUHU216HW,2013-06-08 08:12:00,
2013-06-08 02:17:00,48.1,-5.9,29.73,WSW,248,0.2,0.9,8,0.00,,,0.00,WUHU216HW,2013-06-08 08:17:00,
2013-06-08 02:22:00,47.9,-6.0,29.73,SSW,203,0.4,0.9,7,0.00,,,0.00,WUHU216HW,2013-06-08 08:22:00,
2013-06-08 02:27:00,47.9,-6.0,29.73,SW,225,0.4,1.1,6,0.00,,,0.00,WUHU216HW,2013-06-08 08:27:00,
2013-06-08 02:32:00,47.9,-6.0,29.73,SSW,203,0.4,1.1,5,0.00,,,0.00,WUHU216HW,2013-06-08 08:32:00,
2013-06-08 02:37:00,47.9,-6.0,29.73,WSW,248,0.2,0.9,7,0.00,,,0.00,WUHU216HW,2013-06-08 08:37:00,
2013-06-08 02:42:00,47.9,-6.0,29.73,SSW,203,0.4,1.1,7,0.00,,,0.00,WUHU216HW,2013-06-08 08:42:00,
2013-06-08 02:47:00,47.9,-4.6,29.73,WSW,248,0.9,1.1,11,0.00,,,0.00,WUHU216HW,2013-06-08 08:47:00,
2013-06-08 02:52:00,48.2,-2.8,29.73,WSW,248,0.9,0.9,12,0.00,,,0.00,WUHU216HW,2013-06-08 08:52:00,
2013-06-08 02:57:00,48.4,3.2,29.73,WSW,248,1.1,1.1,16,0.00,,,0.00,WUHU216HW,2013-06-08 08:57:00,
2013-06-08 03:02:00,48.6,6.4,29.73,West,270,0.4,1.1,18,0.00,,,0.00,WUHU216HW,2013-06-08 09:02:00,
2013-06-08 03:07:00,48.6,10.3,29.73,WSW,248,0.9,1.1,21,0.00,,,0.00,WUHU216HW,2013-06-08 09:07:00,
2013-06-08 03:12:00,48.4,11.1,29.73,West,270,0.4,0.9,22,0.00,,,0.00,WUHU216HW,2013-06-08 09:12:00,
2013-06-08 03:17:00,48.2,12.8,29.73,West,270,0.4,1.1,24,0.00,,,0.00,WUHU216HW,2013-06-08 09:17:00,
2013-06-08 03:22:00,48.1,13.5,29.74,WSW,248,0.4,1.1,25,0.00,,,0.00,WUHU216HW,2013-06-08 09:22:00,
2013-06-08 03:27:00,48.1,16.3,29.73,WSW,248,0.4,1.1,28,0.00,,,0.00,WUHU216HW,2013-06-08 09:27:00,
2013-06-08 03:32:00,48.2,17.5,29.73,West,270,0.9,0.9,29,0.00,,,0.00,WUHU216HW,2013-06-08 09:32:00,
2013-06-08 03:37:00,48.2,19.0,29.73,WSW,248,0.4,1.1,31,0.00,,,0.00,WUHU216HW,2013-06-08 09:37:00,
2013-06-08 03:42:00,48.4,20.5,29.73,WSW,248,0.7,1.1,33,0.00,,,0.00,WUHU216HW,2013-06-08 09:42:00,
2013-06-08 03:47:00,48.4,22.5,29.74,West,270,0.4,0.9,36,0.00,,,0.00,WUHU216HW,2013-06-08 09:47:00,
2013-06-08 03:52:00,48.2,23.1,29.74,West,270,0.4,0.9,37,0.00,,,0.00,WUHU216HW,2013-06-08 09:52:00,
2013-06-08 03:57:00,48.2,23.7,29.74,WSW,248,0.4,0.7,38,0.00,,,0.00,WUHU216HW,2013-06-08 09:57:00,
2013-06-08 04:02:00,48.2,24.4,29.74,West,270,0.0,1.1,39,0.00,,,0.00,WUHU216HW,2013-06-08 10:02:00,
2013-06-08 04:07:00,48.1,24.2,29.74,WSW,248,0.7,1.1,39,0.00,,,0.00,WUHU216HW,2013-06-08 10:07:00,
2013-06-08 04:12:00,47.9,24.0,29.74,West,270,0.2,0.9,39,0.00,,,0.00,WUHU216HW,2013-06-08 10:12:00,
2013-06-08 04:17:00,47.9,24.7,29.74,WSW,248,0.2,0.7,40,0.00,,,0.00,WUHU216HW,2013-06-08 10:17:00,
2013-06-08 04:22:00,47.9,25.2,29.74,West,270,1.1,1.1,41,0.00,,,0.00,WUHU216HW,2013-06-08 10:22:00,
2013-06-08 04:27:00,47.9,25.7,29.74,WSW,248,0.4,1.1,42,0.00,,,0.00,WUHU216HW,2013-06-08 10:27:00,
2013-06-08 04:32:00,47.9,26.3,29.74,SW,225,0.2,0.7,43,0.00,,,0.00,WUHU216HW,2013-06-08 10:32:00,
2013-06-08 04:37:00,47.9,26.8,29.74,West,270,0.4,0.7,44,0.00,,,0.00,WUHU216HW,2013-06-08 10:37:00,
2013-06-08 04:42:00,47.9,26.8,29.74,West,270,0.2,0.9,44,0.00,,,0.00,WUHU216HW,2013-06-08 10:42:00,
2013-06-08 04:47:00,47.7,27.3,29.74,WSW,248,0.4,0.9,45,0.00,,,0.00,WUHU216HW,2013-06-08 10:47:00,
2013-06-08 04:52:00,47.7,27.3,29.74,WNW,293,0.0,0.4,45,0.00,,,0.00,WUHU216HW,2013-06-08 10:52:00,
2013-06-08 04:57:00,47.5,27.6,29.74,WSW,248,0.0,0.4,46,0.00,,,0.00,WUHU216HW,2013-06-08 10:57:00,
2013-06-08 05:02:00,47.2,27.3,29.75,West,270,0.0,0.2,46,0.00,,,0.00,WUHU216HW,2013-06-08 11:02:00,
2013-06-08 05:07:00,47.0,27.1,29.74,SW,225,0.0,0.0,46,0.00,,,0.00,WUHU216HW,2013-06-08 11:07:00,
2013-06-08 05:12:00,46.4,24.5,29.75,SSW,203,0.0,0.0,42,0.00,,,0.00,WUHU216HW,2013-06-08 11:12:00,
2013-06-08 05:17:00,46.1,23.0,29.75,SSW,203,0.0,0.0,40,0.00,,,0.00,WUHU216HW,2013-06-08 11:17:00,
2013-06-08 05:22:00,45.9,24.0,29.75,WSW,248,0.0,0.0,42,0.00,,,0.00,WUHU216HW,2013-06-08 11:22:00,
2013-06-08 05:27:00,45.7,23.9,29.75,WNW,293,0.0,0.0,42,0.00,,,0.00,WUHU216HW,2013-06-08 11:27:00,
2013-06-08 05:32:00,45.7,22.1,29.75,NW,315,0.0,0.2,39,0.00,,,0.00,WUHU216HW,2013-06-08 11:32:00,
2013-06-08 05:37:00,45.7,22.1,29.75,WNW,293,0.0,0.2,39,0.00,,,0.00,WUHU216HW,2013-06-08 11:37:00,
2013-06-08 05:42:00,45.7,21.4,29.75,WNW,293,0.0,0.7,38,0.00,,,0.00,WUHU216HW,2013-06-08 11:42:00,
2013-06-08 05:47:00,45.7,22.8,29.76,West,270,0.2,0.7,40,0.00,,,0.00,WUHU216HW,2013-06-08 11:47:00,
2013-06-08 05:52:00,45.9,23.0,29.76,NNE,23,0.0,0.4,40,0.00,,,0.00,WUHU216HW,2013-06-08 11:52:00,
2013-06-08 05:57:00,46.1,23.6,29.76,West,270,0.0,0.4,41,0.00,,,0.00,WUHU216HW,2013-06-08 11:57:00,
2013-06-08 06:02:00,46.1,23.6,29.76,NNW,338,0.4,0.4,41,0.00,,,0.00,WUHU216HW,2013-06-08 12:02:00,
2013-06-08 06:07:00,46.1,25.2,29.76,North,0,0.4,0.7,44,0.00,,,0.00,WUHU216HW,2013-06-08 12:07:00,
2013-06-08 06:12:00,46.4,25.0,29.76,NNW,338,0.0,0.7,43,0.00,,,0.00,WUHU216HW,2013-06-08 12:12:00,
2013-06-08 06:17:00,46.3,24.8,29.76,NW,315,0.0,0.4,43,0.00,,,0.00,WUHU216HW,2013-06-08 12:17:00,
2013-06-08 06:22:00,46.4,25.0,29.77,NNW,338,0.0,0.9,43,0.00,,,0.00,WUHU216HW,2013-06-08 12:22:00,
2013-06-08 06:27:00,46.6,24.7,29.77,West,270,0.0,0.9,42,0.00,,,0.00,WUHU216HW,2013-06-08 12:27:00,
2013-06-08 06:32:00,46.8,24.3,29.77,NNW,338,0.7,1.6,41,0.00,,,0.00,WUHU216HW,2013-06-08 12:32:00,
2013-06-08 06:37:00,47.0,24.9,29.77,WSW,248,0.0,1.6,42,0.00,,,0.00,WUHU216HW,2013-06-08 12:37:00,
2013-06-08 06:42:00,47.2,23.4,29.76,NNW,338,0.0,0.7,39,0.00,,,0.00,WUHU216HW,2013-06-08 12:42:00,
2013-06-08 06:47:00,47.3,24.2,29.77,NNW,338,0.0,0.0,40,0.00,,,0.00,WUHU216HW,2013-06-08 12:47:00,
2013-06-08 06:52:00,47.9,25.7,29.77,South,180,0.0,1.6,42,0.00,,,0.00,WUHU216HW,2013-06-08 12:52:00,
2013-06-08 06:57:00,48.2,25.6,29.77,North,0,0.0,1.6,41,0.00,,,0.00,WUHU216HW,2013-06-08 12:57:00,
2013-06-08 07:02:00,48.6,26.5,29.77,South,180,0.0,0.4,42,0.00,,,0.00,WUHU216HW,2013-06-08 13:02:00,
2013-06-08 07:07:00,49.3,28.2,29.78,North,0,0.0,1.1,44,0.00,,,0.00,WUHU216HW,2013-06-08 13:07:00,
2013-06-08 07:12:00,49.7,29.6,29.78,ENE,68,1.1,1.3,46,0.00,,,0.00,WUHU216HW,2013-06-08 13:12:00,
2013-06-08 07:17:00,50.6,32.7,29.78,NE,45,0.0,1.8,50,0.00,,,0.00,WUHU216HW,2013-06-08 13:17:00,
2013-06-08 07:22:00,51.1,33.2,29.78,NE,45,0.0,1.8,50,0.00,,,0.00,WUHU216HW,2013-06-08 13:22:00,
2013-06-08 07:27:00,51.7,32.6,29.78,WNW,293,0.2,2.2,48,0.00,,,0.00,WUHU216HW,2013-06-08 13:27:00,
2013-06-08 07:32:00,52.2,27.9,29.78,NNE,23,2.0,2.9,39,0.00,,,0.00,WUHU216HW,2013-06-08 13:32:00,
2013-06-08 07:37:00,52.4,30.4,29.78,NNE,23,0.2,2.9,43,0.00,,,0.00,WUHU216HW,2013-06-08 13:37:00,
2013-06-08 07:42:00,52.7,34.1,29.78,SW,225,2.0,2.0,49,0.00,,,0.00,WUHU216HW,2013-06-08 13:42:00,
2013-06-08 07:47:00,53.6,41.0,29.78,SE,135,1.1,3.6,62,0.00,,,0.00,WUHU216HW,2013-06-08 13:47:00,
2013-06-08 07:52:00,54.2,41.4,29.78,NNE,23,0.2,3.6,62,0.00,,,0.00,WUHU216HW,2013-06-08 13:52:00,
2013-06-08 07:57:00,54.5,41.8,29.78,SE,135,1.6,2.5,62,0.00,,,0.00,WUHU216HW,2013-06-08 13:57:00,
2013-06-08 08:02:00,54.7,42.0,29.78,SSE,158,1.3,4.0,62,0.00,,,0.00,WUHU216HW,2013-06-08 14:02:00,
2013-06-08 08:07:00,55.1,42.3,29.78,ESE,113,0.4,4.0,62,0.00,,,0.00,WUHU216HW,2013-06-08 14:07:00,
2013-06-08 08:12:00,55.1,41.4,29.78,SSE,158,2.2,3.4,60,0.00,,,0.00,WUHU216HW,2013-06-08 14:12:00,
2013-06-08 08:17:00,55.8,41.2,29.79,SSW,203,1.1,3.4,58,0.00,,,0.00,WUHU216HW,2013-06-08 14:17:00,
2013-06-08 08:22:00,56.0,40.9,29.79,WSW,248,1.1,3.4,57,0.00,,,0.00,WUHU216HW,2013-06-08 14:22:00,
2013-06-08 08:27:00,56.5,41.4,29.79,East,90,1.1,4.0,57,0.00,,,0.00,WUHU216HW,2013-06-08 14:27:00,
2013-06-08 08:32:00,56.9,41.3,29.79,SSE,158,0.9,4.0,56,0.00,,,0.00,WUHU216HW,2013-06-08 14:32:00,
2013-06-08 08:37:00,57.6,41.6,29.79,SE,135,1.8,3.4,55,0.00,,,0.00,WUHU216HW,2013-06-08 14:37:00,
2013-06-08 08:42:00,58.3,41.8,29.79,SSE,158,1.8,3.8,54,0.00,,,0.00,WUHU216HW,2013-06-08 14:42:00,
2013-06-08 08:47:00,58.7,42.0,29.79,South,180,0.9,3.8,54,0.00,,,0.00,WUHU216HW,2013-06-08 14:47:00,
2013-06-08 08:52:00,59.2,41.6,29.79,South,180,2.9,3.6,52,0.00,,,0.00,WUHU216HW,2013-06-08 14:52:00,
2013-06-08 08:57:00,60.1,42.4,29.79,SSW,203,2.0,5.4,52,0.00,,,0.00,WUHU216HW,2013-06-08 14:57:00,
2013-06-08 09:02:00,60.5,41.2,29.79,SSW,203,2.9,5.4,49,0.00,,,0.00,WUHU216HW,2013-06-08 15:02:00,
2013-06-08 09:07:00,61.4,42.0,29.79,SSW,203,2.5,2.9,49,0.00,,,0.00,WUHU216HW,2013-06-08 15:07:00,
2013-06-08 09:12:00,61.9,42.5,29.79,SE,135,0.4,2.5,49,0.00,,,0.00,WUHU216HW,2013-06-08 15:12:00,
2013-06-08 09:17:00,62.5,42.4,29.79,NE,45,0.2,3.4,48,0.00,,,0.00,WUHU216HW,2013-06-08 15:17:00,
2013-06-08 09:22:00,62.6,40.3,29.79,SSE,158,2.5,4.7,44,0.00,,,0.00,WUHU216HW,2013-06-08 15:22:00,
2013-06-08 09:27:00,62.6,42.6,29.79,NE,45,0.0,4.7,48,0.00,,,0.00,WUHU216HW,2013-06-08 15:27:00,
2013-06-08 09:32:00,63.7,43.0,29.79,ESE,113,0.9,3.1,47,0.00,,,0.00,WUHU216HW,2013-06-08 15:32:00,
2013-06-08 09:37:00,64.8,42.9,29.79,South,180,2.9,2.9,45,0.00,,,0.00,WUHU216HW,2013-06-08 15:37:00,
2013-06-08 09:42:00,64.8,42.2,29.79,SE,135,0.9,2.9,44,0.00,,,0.00,WUHU216HW,2013-06-08 15:42:00,
2013-06-08 09:47:00,65.5,42.3,29.79,East,90,2.7,2.7,43,0.00,,,0.00,WUHU216HW,2013-06-08 15:47:00,
2013-06-08 09:52:00,66.1,44.0,29.79,South,180,3.8,3.8,45,0.00,,,0.00,WUHU216HW,2013-06-08 15:52:00,
2013-06-08 09:57:00,64.8,41.0,29.79,WSW,248,1.6,4.0,42,0.00,,,0.00,WUHU216HW,2013-06-08 15:57:00,
2013-06-08 10:02:00,65.3,43.4,29.79,NNE,23,4.0,4.0,45,0.00,,,0.00,WUHU216HW,2013-06-08 16:02:00,
2013-06-08 10:07:00,65.9,41.5,29.79,West,270,0.4,4.0,41,0.00,,,0.00,WUHU216HW,2013-06-08 16:07:00,
2013-06-08 10:12:00,66.8,41.7,29.79,South,180,0.9,3.4,40,0.00,,,0.00,WUHU216HW,2013-06-08 16:12:00,
2013-06-08 10:17:00,66.4,40.0,29.79,SE,135,1.6,4.0,38,0.00,,,0.00,WUHU216HW,2013-06-08 16:17:00,
2013-06-08 10:22:00,65.7,42.5,29.79,SW,225,2.0,4.0,43,0.00,,,0.00,WUHU216HW,2013-06-08 16:22:00,
2013-06-08 10:27:00,64.8,40.5,29.79,SE,135,1.6,4.0,41,0.00,,,0.00,WUHU216HW,2013-06-08 16:27:00,
2013-06-08 10:32:00,64.8,41.0,29.79,SSW,203,1.3,4.0,42,0.00,,,0.00,WUHU216HW,2013-06-08 16:32:00,
2013-06-08 10:38:00,65.0,40.7,29.79,WNW,293,0.9,3.1,41,0.00,,,0.00,WUHU216HW,2013-06-08 16:38:00,
2013-06-08 10:43:00,64.8,40.0,29.79,SSE,158,1.3,4.0,40,0.00,,,0.00,WUHU216HW,2013-06-08 16:43:00,
2013-06-08 10:47:00,64.3,41.1,29.79,WSW,248,0.4,4.0,43,0.00,,,0.00,WUHU216HW,2013-06-08 16:47:00,
2013-06-08 10:53:00,63.7,38.3,29.79,SSW,203,6.0,6.0,39,0.00,,,0.00,WUHU216HW,2013-06-08 16:53:00,
2013-06-08 10:57:00,64.1,38.5,29.79,SSE,158,6.7,6.7,39,0.00,,,0.00,WUHU216HW,2013-06-08 16:57:00,
2013-06-08 11:02:00,64.4,39.6,29.79,SW,225,0.4,6.7,40,0.00,,,0.00,WUHU216HW,2013-06-08 17:02:00,
2013-06-08 11:08:00,65.5,40.6,29.79,ENE,68,1.6,4.7,40,0.00,,,0.00,WUHU216HW,2013-06-08 17:08:00,
2013-06-08 11:13:00,66.2,39.1,29.79,SSE,158,2.9,7.4,37,0.00,,,0.00,WUHU216HW,2013-06-08 17:13:00,
2013-06-08 11:18:00,65.9,40.1,29.79,South,180,1.1,7.4,39,0.00,,,0.00,WUHU216HW,2013-06-08 17:18:00,
2013-06-08 11:23:00,66.6,42.1,29.79,SSE,158,1.6,5.4,41,0.00,,,0.00,WUHU216HW,2013-06-08 17:23:00,
2013-06-08 11:28:00,67.3,40.8,29.79,NW,315,1.8,4.3,38,0.00,,,0.00,WUHU216HW,2013-06-08 17:28:00,
2013-06-08 11:33:00,68.0,40.6,29.79,ESE,113,2.9,4.0,37,0.00,,,0.00,WUHU216HW,2013-06-08 17:33:00,
2013-06-08 11:38:00,68.8,43.5,29.79,WSW,248,1.8,5.1,40,0.00,,,0.00,WUHU216HW,2013-06-08 17:38:00,
2013-06-08 11:43:00,68.8,39.8,29.79,SSW,203,4.5,5.1,35,0.00,,,0.00,WUHU216HW,2013-06-08 17:43:00,
2013-06-08 11:48:00,68.0,42.8,29.79,ENE,68,3.8,6.3,40,0.00,,,0.00,WUHU216HW,2013-06-08 17:48:00,
2013-06-08 11:53:00,68.6,42.6,29.79,NE,45,3.4,6.3,39,0.00,,,0.00,WUHU216HW,2013-06-08 17:53:00,
2013-06-08 11:57:00,69.1,43.8,29.79,East,90,1.1,4.7,40,0.00,,,0.00,WUHU216HW,2013-06-08 17:57:00,
2013-06-08 12:02:00,69.1,41.6,29.79,NE,45,1.6,4.7,37,0.00,,,0.00,WUHU216HW,2013-06-08 18:02:00,
2013-06-08 12:07:00,68.8,41.3,29.79,SE,135,1.8,5.6,37,0.00,,,0.00,WUHU216HW,2013-06-08 18:07:00,
2013-06-08 12:13:00,69.1,41.6,29.79,SE,135,1.3,7.2,37,0.00,,,0.00,WUHU216HW,2013-06-08 18:13:00,
2013-06-08 12:18:00,69.7,39.2,29.79,South,180,3.4,7.2,33,0.00,,,0.00,WUHU216HW,2013-06-08 18:18:00,
2013-06-08 12:23:00,69.5,40.4,29.79,SSE,158,3.8,3.8,35,0.00,,,0.00,WUHU216HW,2013-06-08 18:23:00,
2013-06-08 12:28:00,69.7,39.9,29.79,West,270,1.6,4.3,34,0.00,,,0.00,WUHU216HW,2013-06-08 18:28:00,
2013-06-08 12:32:00,69.1,43.8,29.79,NW,315,0.4,4.9,40,0.00,,,0.00,WUHU216HW,2013-06-08 18:32:00,
2013-06-08 12:38:00,69.1,41.6,29.79,South,180,1.8,4.9,37,0.00,,,0.00,WUHU216HW,2013-06-08 18:38:00,
2013-06-08 12:42:00,69.3,41.1,29.79,West,270,0.4,3.4,36,0.00,,,0.00,WUHU216HW,2013-06-08 18:42:00,
2013-06-08 12:47:00,70.2,42.6,29.79,SW,225,1.1,4.0,37,0.00,,,0.00,WUHU216HW,2013-06-08 18:47:00,
2013-06-08 12:52:00,70.6,38.4,29.79,South,180,1.3,4.0,31,0.00,,,0.00,WUHU216HW,2013-06-08 18:52:00,
2013-06-08 12:57:00,70.2,40.3,29.79,South,180,3.4,4.7,34,0.00,,,0.00,WUHU216HW,2013-06-08 18:57:00,
2013-06-08 13:02:00,69.8,40.8,29.79,SSE,158,1.8,5.4,35,0.00,,,0.00,WUHU216HW,2013-06-08 19:02:00,
2013-06-08 13:08:00,70.2,40.3,29.79,SE,135,3.4,5.4,34,0.00,,,0.00,WUHU216HW,2013-06-08 19:08:00,
2013-06-08 13:13:00,70.7,41.6,29.79,SE,135,0.9,4.3,35,0.00,,,0.00,WUHU216HW,2013-06-08 19:13:00,
2013-06-08 13:18:00,72.0,42.7,29.79,SE,135,3.4,4.9,35,0.00,,,0.00,WUHU216HW,2013-06-08 19:18:00,
2013-06-08 13:23:00,72.5,40.1,29.79,SSW,203,1.1,4.9,31,0.00,,,0.00,WUHU216HW,2013-06-08 19:23:00,
2013-06-08 13:28:00,72.7,41.9,29.78,WSW,248,0.4,3.6,33,0.00,,,0.00,WUHU216HW,2013-06-08 19:28:00,
2013-06-08 13:33:00,72.4,40.1,29.78,SSW,203,1.8,3.8,31,0.00,,,0.00,WUHU216HW,2013-06-08 19:33:00,
2013-06-08 13:38:00,71.8,41.0,29.78,SSW,203,2.0,3.8,33,0.00,,,0.00,WUHU216HW,2013-06-08 19:38:00,
2013-06-08 13:43:00,71.3,39.2,29.78,ESE,113,1.1,3.1,31,0.00,,,0.00,WUHU216HW,2013-06-08 19:43:00,
2013-06-08 13:48:00,71.6,41.7,29.78,NNE,23,2.5,3.1,34,0.00,,,0.00,WUHU216HW,2013-06-08 19:48:00,
2013-06-08 13:53:00,73.1,41.4,29.78,South,180,2.2,4.0,32,0.00,,,0.00,WUHU216HW,2013-06-08 19:53:00,
2013-06-08 13:58:00,73.4,40.9,29.78,WSW,248,1.1,4.0,31,0.00,,,0.00,WUHU216HW,2013-06-08 19:58:00,
2013-06-08 14:03:00,73.4,43.2,29.78,SW,225,0.4,6.3,34,0.00,,,0.00,WUHU216HW,2013-06-08 20:03:00,
2013-06-08 14:08:00,74.3,41.7,29.78,NNW,338,1.8,6.3,31,0.00,,,0.00,WUHU216HW,2013-06-08 20:08:00,
2013-06-08 14:13:00,74.0,42.9,29.77,WSW,248,1.3,4.0,33,0.00,,,0.00,WUHU216HW,2013-06-08 20:13:00,
2013-06-08 14:18:00,73.8,39.4,29.78,SE,135,8.5,8.5,29,0.00,,,0.00,WUHU216HW,2013-06-08 20:18:00,
2013-06-08 14:23:00,72.7,41.0,29.78,NW,315,1.1,8.5,32,0.00,,,0.00,WUHU216HW,2013-06-08 20:23:00,
2013-06-08 14:28:00,73.1,41.4,29.77,North,0,0.4,5.6,32,0.00,,,0.00,WUHU216HW,2013-06-08 20:28:00,
2013-06-08 14:33:00,73.1,41.4,29.77,ESE,113,2.0,6.5,32,0.00,,,0.00,WUHU216HW,2013-06-08 20:33:00,
2013-06-08 14:38:00,73.3,42.3,29.77,ENE,68,3.4,6.5,33,0.00,,,0.00,WUHU216HW,2013-06-08 20:38:00,
2013-06-08 14:43:00,73.1,42.1,29.77,South,180,1.3,6.3,33,0.00,,,0.00,WUHU216HW,2013-06-08 20:43:00,
2013-06-08 14:48:00,72.7,42.6,29.78,NNW,338,4.0,6.9,34,0.00,,,0.00,WUHU216HW,2013-06-08 20:48:00,
2013-06-08 14:53:00,72.4,42.3,29.77,NW,315,2.5,6.9,34,0.00,,,0.00,WUHU216HW,2013-06-08 20:53:00,
2013-06-08 14:58:00,72.9,41.2,29.77,ESE,113,1.8,4.3,32,0.00,,,0.00,WUHU216HW,2013-06-08 20:58:00,
2013-06-08 15:03:00,72.7,42.6,29.77,WNW,293,0.7,2.7,34,0.00,,,0.00,WUHU216HW,2013-06-08 21:03:00,
2013-06-08 15:08:00,73.3,43.0,29.77,NNE,23,1.8,2.7,34,0.00,,,0.00,WUHU216HW,2013-06-08 21:08:00,
2013-06-08 15:13:00,73.8,41.9,29.77,SW,225,0.4,2.0,32,0.00,,,0.00,WUHU216HW,2013-06-08 21:13:00,
2013-06-08 15:18:00,73.6,39.3,29.77,SSE,158,1.1,2.2,29,0.00,,,0.00,WUHU216HW,2013-06-08 21:18:00,
2013-06-08 15:23:00,72.9,38.7,29.77,ESE,113,2.9,2.9,29,0.00,,,0.00,WUHU216HW,2013-06-08 21:23:00,
2013-06-08 15:28:00,70.6,37.7,29.77,SSW,203,2.5,2.9,30,0.00,,,0.00,WUHU216HW,2013-06-08 21:28:00,
2013-06-08 15:33:00,70.7,40.9,29.77,SSE,158,0.9,2.9,34,0.00,,,0.00,WUHU216HW,2013-06-08 21:33:00,
2013-06-08 15:38:00,71.5,41.5,29.77,South,180,3.8,3.8,34,0.00,,,0.00,WUHU216HW,2013-06-08 21:38:00,
2013-06-08 15:43:00,70.6,39.3,29.77,South,180,1.1,4.7,32,0.00,,,0.00,WUHU216HW,2013-06-08 21:43:00,
2013-06-08 15:48:00,70.0,41.7,29.77,SW,225,0.7,4.7,36,0.00,,,0.00,WUHU216HW,2013-06-08 21:48:00,
2013-06-08 15:53:00,70.6,40.7,29.77,NE,45,4.3,4.3,34,0.00,,,0.00,WUHU216HW,2013-06-08 21:53:00,
2013-06-08 15:58:00,70.2,39.6,29.77,SE,135,2.5,5.6,33,0.00,,,0.00,WUHU216HW,2013-06-08 21:58:00,
2013-06-08 16:03:00,71.6,41.7,29.76,NNE,23,4.7,5.6,34,0.00,,,0.00,WUHU216HW,2013-06-08 22:03:00,
2013-06-08 16:08:00,72.4,43.0,29.76,NE,45,3.8,8.3,35,0.00,,,0.00,WUHU216HW,2013-06-08 22:08:00,
2013-06-08 16:13:00,71.8,40.3,29.76,SE,135,3.4,8.3,32,0.00,,,0.00,WUHU216HW,2013-06-08 22:13:00,
2013-06-08 16:18:00,71.6,41.7,29.76,ENE,68,2.9,6.7,34,0.00,,,0.00,WUHU216HW,2013-06-08 22:18:00,
2013-06-08 16:23:00,71.6,42.4,29.76,North,0,0.4,6.7,35,0.00,,,0.00,WUHU216HW,2013-06-08 22:23:00,
2013-06-08 16:28:00,71.6,40.1,29.76,SE,135,4.7,4.7,32,0.00,,,0.00,WUHU216HW,2013-06-08 22:28:00,
2013-06-08 16:33:00,71.6,41.0,29.76,SE,135,1.3,4.7,33,0.00,,,0.00,WUHU216HW,2013-06-08 22:33:00,
2013-06-08 16:38:00,71.1,39.0,29.76,South,180,1.1,6.3,31,0.00,,,0.00,WUHU216HW,2013-06-08 22:38:00,
2013-06-08 16:43:00,70.9,39.5,29.76,WSW,248,0.9,6.3,32,0.00,,,0.00,WUHU216HW,2013-06-08 22:43:00,
2013-06-08 16:48:00,70.7,40.9,29.76,NNE,23,2.2,5.1,34,0.00,,,0.00,WUHU216HW,2013-06-08 22:48:00,
2013-06-08 16:53:00,70.9,41.1,29.75,SSW,203,2.5,4.0,34,0.00,,,0.00,WUHU216HW,2013-06-08 22:53:00,
2013-06-08 16:58:00,71.1,41.1,29.75,NNW,338,1.1,3.1,34,0.00,,,0.00,WUHU216HW,2013-06-08 22:58:00,
2013-06-08 17:03:00,70.4,40.5,29.75,WSW,248,0.4,5.4,34,0.00,,,0.00,WUHU216HW,2013-06-08 23:03:00,
2013-06-08 17:08:00,70.0,40.2,29.75,SW,225,1.6,5.8,34,0.00,,,0.00,WUHU216HW,2013-06-08 23:08:00,
2013-06-08 17:13:00,69.5,39.7,29.76,NNE,23,2.5,5.8,34,0.00,,,0.00,WUHU216HW,2013-06-08 23:13:00,
2013-06-08 17:18:00,69.5,42.0,29.75,WSW,248,0.9,5.4,37,0.00,,,0.00,WUHU216HW,2013-06-08 23:18:00,
2013-06-08 17:23:00,68.8,41.3,29.75,WSW,248,1.6,3.4,37,0.00,,,0.00,WUHU216HW,2013-06-08 23:23:00,
2013-06-08 17:28:00,68.6,39.6,29.76,ESE,113,5.8,5.8,35,0.00,,,0.00,WUHU216HW,2013-06-08 23:28:00,
2013-06-08 17:33:00,68.4,41.7,29.76,South,180,4.5,5.8,38,0.00,,,0.00,WUHU216HW,2013-06-08 23:33:00,
2013-06-08 17:38:00,68.0,40.6,29.76,SE,135,1.1,4.5,37,0.00,,,0.00,WUHU216HW,2013-06-08 23:38:00,
2013-06-08 17:43:00,67.5,40.1,29.76,SSE,158,0.7,6.0,37,0.00,,,0.00,WUHU216HW,2013-06-08 23:43:00,
2013-06-08 17:48:00,67.3,40.0,29.76,SSW,203,8.7,8.7,37,0.00,,,0.00,WUHU216HW,2013-06-08 23:48:00,
2013-06-08 17:53:00,67.3,40.8,29.76,NNW,338,0.2,8.7,38,0.00,,,0.00,WUHU216HW,2013-06-08 23:53:00,
2013-06-08 17:58:00,67.1,40.6,29.76,SSE,158,3.4,4.0,38,0.00,,,0.00,WUHU216HW,2013-06-08 23:58:00,
2013-06-08 18:03:00,67.0,41.1,29.76,SSE,158,1.8,4.3,39,0.00,,,0.00,WUHU216HW,2013-06-09 00:03:00,
2013-06-08 18:08:00,66.6,39.3,29.76,SSE,158,2.9,7.4,37,0.00,,,0.00,WUHU216HW,2013-06-09 00:08:00,
2013-06-08 18:13:00,66.6,42.1,29.76,North,0,1.3,7.4,41,0.00,,,0.00,WUHU216HW,2013-06-09 00:13:00,
2013-06-08 18:18:00,66.2,40.5,29.76,SE,135,3.4,3.8,39,0.00,,,0.00,WUHU216HW,2013-06-09 00:18:00,
2013-06-08 18:23:00,66.1,41.0,29.76,East,90,4.9,4.9,40,0.00,,,0.00,WUHU216HW,2013-06-09 00:23:00,
2013-06-08 18:28:00,66.1,40.3,29.75,SE,135,1.8,4.9,39,0.00,,,0.00,WUHU216HW,2013-06-09 00:28:00,
2013-06-08 18:33:00,65.9,40.1,29.75,WNW,293,1.3,5.4,39,0.00,,,0.00,WUHU216HW,2013-06-09 00:33:00,
2013-06-08 18:38:00,65.7,40.1,29.76,East,90,3.8,5.4,39,0.00,,,0.00,WUHU216HW,2013-06-09 00:38:00,
2013-06-08 18:43:00,65.3,41.0,29.76,ENE,68,1.8,4.7,41,0.00,,,0.00,WUHU216HW,2013-06-09 00:43:00,
2013-06-08 18:48:00,65.0,41.2,29.76,SSW,203,4.0,4.7,42,0.00,,,0.00,WUHU216HW,2013-06-09 00:48:00,
2013-06-08 18:53:00,64.6,41.0,29.76,West,270,0.4,4.0,42,0.00,,,0.00,WUHU216HW,2013-06-09 00:53:00,
2013-06-08 18:58:00,64.3,41.1,29.76,SSE,158,3.1,3.1,43,0.00,,,0.00,WUHU216HW,2013-06-09 00:58:00,
2013-06-08 19:03:00,63.9,41.4,29.76,West,270,3.1,3.6,44,0.00,,,0.00,WUHU216HW,2013-06-09 01:03:00,
2013-06-08 19:08:00,63.7,41.2,29.77,SW,225,0.7,3.6,44,0.00,,,0.00,WUHU216HW,2013-06-09 01:08:00,
2013-06-08 19:13:00,63.4,41.5,29.77,ESE,113,1.6,2.5,45,0.00,,,0.00,WUHU216HW,2013-06-09 01:13:00,
2013-06-08 19:18:00,63.5,41.7,29.77,SE,135,0.4,2.2,45,0.00,,,0.00,WUHU216HW,2013-06-09 01:18:00,
2013-06-08 19:23:00,63.9,40.9,29.77,South,180,4.5,4.5,43,0.00,,,0.00,WUHU216HW,2013-06-09 01:23:00,
2013-06-08 19:28:00,64.1,41.6,29.77,SW,225,0.0,5.4,44,0.00,,,0.00,WUHU216HW,2013-06-09 01:28:00,
2013-06-08 19:33:00,63.9,40.9,29.77,WSW,248,0.4,9.6,43,0.00,,,0.00,WUHU216HW,2013-06-09 01:33:00,
2013-06-08 19:38:00,63.7,41.2,29.77,SE,135,2.7,9.6,44,0.00,,,0.00,WUHU216HW,2013-06-09 01:38:00,
2013-06-08 19:43:00,63.4,41.0,29.77,SE,135,1.3,2.7,44,0.00,,,0.00,WUHU216HW,2013-06-09 01:43:00,
2013-06-08 19:48:00,63.4,41.0,29.77,NNE,23,0.9,4.0,44,0.00,,,0.00,WUHU216HW,2013-06-09 01:48:00,
2013-06-08 19:53:00,63.0,40.6,29.77,SSE,158,0.9,4.0,44,0.00,,,0.00,WUHU216HW,2013-06-09 01:53:00,
2013-06-08 19:58:00,63.2,40.8,29.77,West,270,1.6,2.5,44,0.00,,,0.00,WUHU216HW,2013-06-09 01:58:00,
2013-06-08 20:03:00,63.0,41.8,29.77,NNW,338,0.9,2.5,46,0.00,,,0.00,WUHU216HW,2013-06-09 02:03:00,
2013-06-08 20:08:00,62.5,41.3,29.78,West,270,0.0,4.0,46,0.00,,,0.00,WUHU216HW,2013-06-09 02:08:00,
2013-06-08 20:13:00,62.3,41.1,29.78,WSW,248,0.0,4.0,46,0.00,,,0.00,WUHU216HW,2013-06-09 02:13:00,
2013-06-08 20:18:00,61.7,41.2,29.78,ESE,113,1.8,1.8,47,0.00,,,0.00,WUHU216HW,2013-06-09 02:18:00,
2013-06-08 20:23:00,61.2,41.3,29.78,WNW,293,0.0,1.8,48,0.00,,,0.00,WUHU216HW,2013-06-09 02:23:00,
2013-06-08 20:28:00,60.8,41.0,29.78,West,270,0.2,1.8,48,0.00,,,0.00,WUHU216HW,2013-06-09 02:28:00,
2013-06-08 20:33:00,60.8,41.0,29.78,SW,225,0.0,2.5,48,0.00,,,0.00,WUHU216HW,2013-06-09 02:33:00,
2013-06-08 20:38:00,60.5,41.2,29.78,WNW,293,0.0,2.5,49,0.00,,,0.00,WUHU216HW,2013-06-09 02:38:00,
2013-06-08 20:43:00,60.1,40.9,29.78,WSW,248,0.0,1.1,49,0.00,,,0.00,WUHU216HW,2013-06-09 02:43:00,
2013-06-08 20:48:00,59.6,41.0,29.78,WSW,248,0.0,0.4,50,0.00,,,0.00,WUHU216HW,2013-06-09 02:48:00,
2013-06-08 20:53:00,59.2,41.6,29.78,WSW,248,0.0,0.4,52,0.00,,,0.00,WUHU216HW,2013-06-09 02:53:00,
2013-06-08 20:58:00,58.7,41.1,29.78,WSW,248,0.4,0.4,52,0.00,,,0.00,WUHU216HW,2013-06-09 02:58:00,
2013-06-08 21:03:00,58.3,41.8,29.78,WSW,248,0.0,0.4,54,0.00,,,0.00,WUHU216HW,2013-06-09 03:03:00,
2013-06-08 21:08:00,58.0,41.4,29.78,WSW,248,0.0,0.0,54,0.00,,,0.00,WUHU216HW,2013-06-09 03:08:00,
2013-06-08 21:13:00,57.6,41.0,29.78,WSW,248,0.4,0.7,54,0.00,,,0.00,WUHU216HW,2013-06-09 03:13:00,
2013-06-08 21:18:00,57.4,41.0,29.78,West,270,0.0,1.3,54,0.00,,,0.00,WUHU216HW,2013-06-09 03:18:00,
2013-06-08 21:23:00,57.1,40.6,29.78,West,270,0.0,1.3,54,0.00,,,0.00,WUHU216HW,2013-06-09 03:23:00,
2013-06-08 21:28:00,56.5,41.0,29.78,SSW,203,0.0,1.3,56,0.00,,,0.00,WUHU216HW,2013-06-09 03:28:00,
2013-06-08 21:33:00,56.0,40.9,29.78,SW,225,0.0,1.3,57,0.00,,,0.00,WUHU216HW,2013-06-09 03:33:00,
2013-06-08 21:38:00,55.6,41.1,29.78,WSW,248,0.0,0.7,58,0.00,,,0.00,WUHU216HW,2013-06-09 03:38:00,
2013-06-08 21:43:00,55.1,41.4,29.78,SW,225,0.7,0.9,60,0.00,,,0.00,WUHU216HW,2013-06-09 03:43:00,
2013-06-08 21:48:00,54.4,41.2,29.78,SSW,203,1.1,1.1,61,0.00,,,0.00,WUHU216HW,2013-06-09 03:48:00,
2013-06-08 21:53:00,53.8,41.1,29.79,SW,225,0.7,1.1,62,0.00,,,0.00,WUHU216HW,2013-06-09 03:53:00,
2013-06-08 21:58:00,53.5,41.1,29.78,SSW,203,1.1,1.1,63,0.00,,,0.00,WUHU216HW,2013-06-09 03:58:00,
2013-06-08 22:01:00,53.1,40.4,29.78,SSW,203,0.4,1.1,62,0.00,,,0.00,WUHU216HW,2013-06-09 04:01:00,
2013-06-08 22:06:00,52.7,40.1,29.78,SSW,203,0.0,1.1,62,0.00,,,0.00,WUHU216HW,2013-06-09 04:06:00,
2013-06-08 22:12:00,52.4,39.7,29.78,SSW,203,1.1,1.1,62,0.00,,,0.00,WUHU216HW,2013-06-09 04:12:00,
2013-06-08 22:16:00,52.2,40.0,29.79,SW,225,0.7,1.1,63,0.00,,,0.00,WUHU216HW,2013-06-09 04:16:00,
2013-06-08 22:22:00,52.2,40.0,29.79,WSW,248,0.7,0.9,63,0.00,,,0.00,WUHU216HW,2013-06-09 04:22:00,
2013-06-08 22:27:00,52.2,40.0,29.79,West,270,1.6,1.6,63,0.00,,,0.00,WUHU216HW,2013-06-09 04:27:00,
2013-06-08 22:32:00,52.4,40.2,29.78,WSW,248,0.0,1.6,63,0.00,,,0.00,WUHU216HW,2013-06-09 04:32:00,
2013-06-08 22:37:00,52.4,40.2,29.78,West,270,0.4,1.6,63,0.00,,,0.00,WUHU216HW,2013-06-09 04:37:00,
2013-06-08 22:42:00,52.6,40.3,29.78,West,270,0.0,1.1,63,0.00,,,0.00,WUHU216HW,2013-06-09 04:42:00,
2013-06-08 22:47:00,52.6,40.3,29.78,SW,225,0.4,1.6,63,0.00,,,0.00,WUHU216HW,2013-06-09 04:47:00,
2013-06-08 22:52:00,52.4,40.2,29.78,SW,225,0.4,1.6,63,0.00,,,0.00,WUHU216HW,2013-06-09 04:52:00,
2013-06-08 22:57:00,52.2,40.0,29.78,SW,225,0.4,1.8,63,0.00,,,0.00,WUHU216HW,2013-06-09 04:57:00,
2013-06-08 23:02:00,52.2,40.0,29.78,West,270,1.1,1.8,63,0.00,,,0.00,WUHU216HW,2013-06-09 05:02:00,
2013-06-08 23:07:00,52.2,39.5,29.78,SSW,203,1.1,1.8,62,0.00,,,0.00,WUHU216HW,2013-06-09 05:07:00,
2013-06-08 23:12:00,52.2,40.0,29.78,SSW,203,0.2,1.8,63,0.00,,,0.00,WUHU216HW,2013-06-09 05:12:00,
2013-06-08 23:17:00,52.0,39.8,29.78,SSW,203,0.4,0.9,63,0.00,,,0.00,WUHU216HW,2013-06-09 05:17:00,
2013-06-08 23:22:00,51.8,39.6,29.78,West,270,0.9,0.9,63,0.00,,,0.00,WUHU216HW,2013-06-09 05:22:00,
2013-06-08 23:27:00,51.7,39.4,29.78,WSW,248,0.4,2.5,63,0.00,,,0.00,WUHU216HW,2013-06-09 05:27:00,
2013-06-08 23:32:00,51.5,39.2,29.78,SW,225,0.0,2.5,63,0.00,,,0.00,WUHU216HW,2013-06-09 05:32:00,
2013-06-08 23:37:00,51.5,39.2,29.78,WSW,248,0.0,1.8,63,0.00,,,0.00,WUHU216HW,2013-06-09 05:37:00,
2013-06-08 23:42:00,51.1,38.9,29.78,WSW,248,0.0,1.8,63,0.00,,,0.00,WUHU216HW,2013-06-09 05:42:00,
2013-06-08 23:47:00,51.1,39.3,29.78,West,270,0.9,1.1,64,0.00,,,0.00,WUHU216HW,2013-06-09 05:47:00,
2013-06-08 23:52:00,51.5,39.2,29.78,South,180,0.7,1.1,63,0.00,,,0.00,WUHU216HW,2013-06-09 05:52:00,
2013-06-08 23:57:00,51.5,39.2,29.78,West,270,1.1,2.9,63,0.00,,,0.00,WUHU216HW,2013-06-09 05:57:00,